Time;durP1;ratioP1;P1;durP2;ratioP2;P2;SDS_P1;SDS_P2;PMS_P1;PMS_P2;Temp;Humidity;BMP_temperature;BMP_pressure;BME280_temperature;BME280_humidity;BME280_pressure;Samples;Min_cycle;Max_cycle;Signal;HPM_P1;HPM_P2
2022/03/25 00:02:31;;;;;;;16.13;7.07;;;;;;;;;;10290070;28;20044;-59
2022/03/25 00:07:32;;;;;;;30.15;7.20;;;;;;;;;;10291198;28;20093;-59
2022/03/25 00:12:33;;;;;;;16.38;6.97;;;;;;;;;;10287962;28;20117;-59
2022/03/25 00:17:34;;;;;;;20.63;6.75;;;;;;;;;;10280712;28;20471;-59
2022/03/25 00:22:35;;;;;;;19.08;6.72;;;;;;;;;;10291576;28;20070;-59
2022/03/25 00:27:36;;;;;;;12.80;5.95;;;;;;;;;;10289434;28;20080;-59
2022/03/25 00:32:37;;;;;;;16.45;6.82;;;;;;;;;;10292093;28;20037;-59
2022/03/25 00:37:37;;;;;;;17.77;6.80;;;;;;;;;;10290392;28;20023;-57
2022/03/25 00:42:39;;;;;;;12.93;6.05;;;;;;;;;;10292295;28;20576;-57
2022/03/25 00:47:39;;;;;;;17.25;6.85;;;;;;;;;;10290031;28;20498;-58
2022/03/25 00:52:41;;;;;;;13.90;5.80;;;;;;;;;;10292609;28;20034;-57
2022/03/25 00:57:42;;;;;;;14.07;6.55;;;;;;;;;;10292102;28;20109;-57
2022/03/25 01:02:43;;;;;;;15.85;6.40;;;;;;;;;;10299234;28;20184;-57
2022/03/25 01:07:44;;;;;;;15.00;5.97;;;;;;;;;;10295152;28;20474;-57
2022/03/25 01:12:45;;;;;;;18.58;6.15;;;;;;;;;;10300779;28;20058;-57
2022/03/25 01:17:46;;;;;;;14.68;5.85;;;;;;;;;;10287547;28;20034;-57
2022/03/25 01:22:46;;;;;;;14.95;6.35;;;;;;;;;;10298976;28;20096;-57
2022/03/25 01:27:47;;;;;;;13.23;5.43;;;;;;;;;;10295173;28;20144;-58
2022/03/25 01:32:48;;;;;;;12.88;5.75;;;;;;;;;;10295985;28;20037;-58
2022/03/25 01:37:48;;;;;;;12.57;5.93;;;;;;;;;;10293193;28;20475;-59
2022/03/25 01:42:49;;;;;;;11.57;6.28;;;;;;;;;;10306076;28;20085;-58
2022/03/25 01:47:49;;;;;;;13.35;6.00;;;;;;;;;;10290545;28;20038;-59
2022/03/25 01:52:52;;;;;;;12.75;6.18;;;;;;;;;;10305202;28;20034;-59
2022/03/25 01:57:58;;;;;;;15.02;5.63;;;;;;;;;;10291906;28;20054;-58
2022/03/25 02:02:59;;;;;;;11.35;5.57;;;;;;;;;;10305092;28;20113;-58
2022/03/25 02:07:59;;;;;;;9.95;5.40;;;;;;;;;;10290564;28;20478;-59
2022/03/25 02:13:00;;;;;;;9.40;4.80;;;;;;;;;;10304302;28;20042;-58
2022/03/25 02:18:06;;;;;;;11.55;5.75;;;;;;;;;;10291234;28;20494;-59
2022/03/25 02:23:08;;;;;;;12.63;5.32;;;;;;;;;;10297111;28;20034;-58
2022/03/25 02:28:09;;;;;;;11.80;5.50;;;;;;;;;;10287874;28;20041;-58
2022/03/25 02:33:10;;;;;;;9.73;5.35;;;;;;;;;;10283901;28;20041;-58
2022/03/25 02:38:18;;;;;;;10.13;4.75;;;;;;;;;;10274655;28;20031;-58
2022/03/25 02:43:19;;;;;;;10.30;5.30;;;;;;;;;;10295565;28;20053;-58
2022/03/25 02:48:19;;;;;;;12.40;4.60;;;;;;;;;;10291226;28;20033;-58
2022/03/25 02:53:20;;;;;;;8.40;4.75;;;;;;;;;;10291418;28;20081;-58
2022/03/25 02:58:20;;;;;;;7.20;4.80;;;;;;;;;;10288782;28;20053;-57
2022/03/25 03:03:21;;;;;;;12.05;4.90;;;;;;;;;;10293013;28;20492;-58
2022/03/25 03:08:23;;;;;;;9.65;4.85;;;;;;;;;;10289570;28;20039;-58
2022/03/25 03:13:24;;;;;;;8.23;4.57;;;;;;;;;;10291699;28;20030;-58
2022/03/25 03:18:24;;;;;;;11.45;4.95;;;;;;;;;;10290346;28;20031;-59
2022/03/25 03:23:25;;;;;;;9.63;5.38;;;;;;;;;;10290454;28;20034;-58
2022/03/25 03:28:26;;;;;;;7.85;4.28;;;;;;;;;;10283944;28;20030;-58
2022/03/25 03:33:26;;;;;;;6.70;4.45;;;;;;;;;;10299988;28;20066;-58
2022/03/25 03:38:27;;;;;;;7.43;4.40;;;;;;;;;;10283661;28;20067;-58
2022/03/25 03:43:27;;;;;;;7.60;4.68;;;;;;;;;;10294900;28;20031;-58
2022/03/25 03:48:28;;;;;;;11.10;5.07;;;;;;;;;;10290834;28;20109;-58
2022/03/25 03:53:29;;;;;;;9.10;3.97;;;;;;;;;;10288570;28;20077;-57
2022/03/25 03:58:29;;;;;;;6.63;4.55;;;;;;;;;;10290891;28;20054;-57
2022/03/25 04:03:30;;;;;;;7.47;4.25;;;;;;;;;;10298734;28;20031;-58
2022/03/25 04:08:31;;;;;;;9.98;4.60;;;;;;;;;;10290514;28;20039;-58
2022/03/25 04:13:32;;;;;;;7.20;4.20;;;;;;;;;;10298364;28;20050;-57
2022/03/25 04:18:33;;;;;;;5.65;4.00;;;;;;;;;;10290027;28;20042;-57
2022/03/25 04:23:33;;;;;;;6.28;4.32;;;;;;;;;;10287168;28;20043;-58
2022/03/25 04:28:34;;;;;;;7.15;4.80;;;;;;;;;;10290378;28;20041;-58
2022/03/25 04:33:36;;;;;;;5.72;3.90;;;;;;;;;;10294808;28;20038;-59
2022/03/25 04:38:36;;;;;;;7.57;4.25;;;;;;;;;;10291890;28;20033;-58
2022/03/25 04:43:38;;;;;;;6.28;3.80;;;;;;;;;;10295033;28;20038;-58
2022/03/25 04:48:38;;;;;;;7.28;4.25;;;;;;;;;;10298650;28;20038;-58
2022/03/25 04:53:39;;;;;;;6.30;4.15;;;;;;;;;;10296859;28;20494;-58
2022/03/25 04:58:39;;;;;;;8.23;3.75;;;;;;;;;;10298058;28;20097;-58
2022/03/25 05:03:40;;;;;;;6.57;4.47;;;;;;;;;;10293960;28;20555;-59
2022/03/25 05:08:41;;;;;;;5.43;3.92;;;;;;;;;;10298025;28;20370;-59
2022/03/25 05:13:42;;;;;;;6.18;4.43;;;;;;;;;;10293631;28;20505;-59
2022/03/25 05:18:42;;;;;;;8.60;3.97;;;;;;;;;;10297246;28;20034;-59
2022/03/25 05:23:43;;;;;;;4.70;3.65;;;;;;;;;;10297878;28;20054;-58
2022/03/25 05:28:44;;;;;;;5.70;3.60;;;;;;;;;;10297183;28;20041;-58
2022/03/25 05:33:44;;;;;;;5.13;3.67;;;;;;;;;;10294881;28;20042;-58
2022/03/25 05:38:45;;;;;;;6.82;4.03;;;;;;;;;;10294469;28;20031;-58
2022/03/25 05:43:46;;;;;;;6.32;4.60;;;;;;;;;;10285764;28;20042;-58
2022/03/25 05:48:46;;;;;;;6.03;4.32;;;;;;;;;;10296306;28;20030;-58
2022/03/25 05:53:47;;;;;;;4.78;3.78;;;;;;;;;;10285990;28;20042;-59
2022/03/25 05:58:47;;;;;;;5.55;3.50;;;;;;;;;;10295654;28;20497;-58
2022/03/25 06:03:48;;;;;;;5.85;4.38;;;;;;;;;;10297479;28;20125;-58
2022/03/25 06:08:49;;;;;;;6.57;3.33;;;;;;;;;;10294758;28;20091;-59
2022/03/25 06:13:50;;;;;;;5.15;3.55;;;;;;;;;;10295708;28;20491;-59
2022/03/25 06:18:52;;;;;;;5.90;3.50;;;;;;;;;;10295395;28;20370;-59
2022/03/25 06:23:53;;;;;;;5.70;3.45;;;;;;;;;;10295097;28;20497;-57
2022/03/25 06:28:54;;;;;;;4.80;3.55;;;;;;;;;;10287543;28;20030;-58
2022/03/25 06:33:55;;;;;;;6.78;3.60;;;;;;;;;;10299798;28;20050;-58
2022/03/25 06:38:55;;;;;;;4.93;3.42;;;;;;;;;;10292954;28;20501;-58
2022/03/25 06:43:57;;;;;;;5.63;4.07;;;;;;;;;;10291093;28;20022;-63
2022/03/25 06:48:58;;;;;;;12.45;4.40;;;;;;;;;;10290799;28;20097;-63
2022/03/25 06:53:59;;;;;;;11.70;4.13;;;;;;;;;;10285519;28;20101;-62
2022/03/25 06:59:01;;;;;;;21.10;5.35;;;;;;;;;;10281498;28;20116;-61
2022/03/25 07:04:03;;;;;;;10.50;5.57;;;;;;;;;;10284173;28;20382;-61
2022/03/25 07:09:04;;;;;;;16.55;6.50;;;;;;;;;;10286844;28;20410;-61
2022/03/25 07:14:06;;;;;;;15.13;6.10;;;;;;;;;;10289471;28;20027;-60
2022/03/25 07:19:06;;;;;;;24.90;7.50;;;;;;;;;;10285621;28;20117;-59
2022/03/25 07:24:07;;;;;;;17.58;7.38;;;;;;;;;;10284694;28;20441;-66
2022/03/25 07:29:07;;;;;;;22.35;7.38;;;;;;;;;;10291258;28;20034;-63
2022/03/25 07:34:08;;;;;;;18.10;7.55;;;;;;;;;;10288676;28;20042;-63
2022/03/25 07:39:09;;;;;;;16.88;7.60;;;;;;;;;;10292307;28;20038;-64
2022/03/25 07:44:09;;;;;;;21.35;6.90;;;;;;;;;;10288605;28;20027;-64
2022/03/25 07:49:10;;;;;;;23.88;7.32;;;;;;;;;;10289170;28;20038;-64
2022/03/25 07:54:11;;;;;;;19.30;7.10;;;;;;;;;;10285983;28;20034;-61
2022/03/25 07:59:11;;;;;;;17.48;7.30;;;;;;;;;;10282062;28;20134;-63
2022/03/25 08:04:12;;;;;;;12.35;6.93;;;;;;;;;;10290236;28;20045;-64
2022/03/25 08:09:12;;;;;;;17.75;7.68;;;;;;;;;;10281637;28;20042;-62
2022/03/25 08:14:15;;;;;;;11.85;6.93;;;;;;;;;;10290974;28;20049;-62
2022/03/25 08:19:15;;;;;;;15.75;7.72;;;;;;;;;;10283687;28;20074;-61
2022/03/25 08:29:36;;;;;;;17.20;7.80;;;;;;;;;;10294199;28;20046;-61
2022/03/25 08:34:36;;;;;;;15.43;8.60;;;;;;;;;;10292826;28;20629;-60
2022/03/25 08:39:37;;;;;;;13.57;8.15;;;;;;;;;;10285591;28;20035;-61
2022/03/25 08:44:37;;;;;;;19.42;8.15;;;;;;;;;;10293158;28;20022;-63
2022/03/25 08:49:39;;;;;;;11.93;7.75;;;;;;;;;;10287675;28;20035;-61
2022/03/25 08:54:40;;;;;;;13.25;8.32;;;;;;;;;;10291379;28;20053;-62
2022/03/25 08:59:40;;;;;;;15.07;8.48;;;;;;;;;;10287611;28;20509;-63
2022/03/25 09:04:41;;;;;;;13.43;7.65;;;;;;;;;;10292185;28;20385;-61
2022/03/25 09:09:42;;;;;;;17.00;8.40;;;;;;;;;;10279331;28;20038;-63
2022/03/25 09:14:42;;;;;;;13.15;7.97;;;;;;;;;;10280513;28;20034;-61
2022/03/25 09:19:43;;;;;;;12.48;7.43;;;;;;;;;;10291597;28;20063;-63
2022/03/25 09:24:44;;;;;;;15.20;7.60;;;;;;;;;;10296332;28;20043;-63
2022/03/25 09:29:45;;;;;;;17.40;8.10;;;;;;;;;;10275407;28;20026;-62
2022/03/25 09:40:16;;;;;;;13.93;7.07;;;;;;;;;;10294138;28;20568;-63
2022/03/25 09:45:19;;;;;;;13.88;7.47;;;;;;;;;;10294770;28;20031;-63
2022/03/25 09:50:23;;;;;;;15.10;7.35;;;;;;;;;;10294120;28;20030;-63
2022/03/25 09:55:24;;;;;;;12.23;7.68;;;;;;;;;;10293348;28;20484;-63
2022/03/25 10:00:25;;;;;;;13.85;7.35;;;;;;;;;;10293839;28;20082;-62
2022/03/25 10:05:25;;;;;;;12.77;7.10;;;;;;;;;;10294709;28;20027;-63
2022/03/25 10:10:28;;;;;;;15.68;7.38;;;;;;;;;;10292749;28;20049;-62
2022/03/25 10:15:32;;;;;;;13.88;6.72;;;;;;;;;;10286924;28;20448;-61
2022/03/25 10:20:41;;;;;;;11.88;7.30;;;;;;;;;;10292621;28;20050;-62
2022/03/25 10:25:59;;;;;;;12.25;7.80;;;;;;;;;;10283236;28;20027;-63
2022/03/25 10:31:05;;;;;;;12.88;7.50;;;;;;;;;;10291268;28;20038;-63
2022/03/25 10:36:08;;;;;;;9.45;6.60;;;;;;;;;;10295584;28;20046;-62
2022/03/25 10:41:10;;;;;;;12.55;7.28;;;;;;;;;;10296864;28;20374;-62
2022/03/25 10:46:46;;;;;;;16.50;7.85;;;;;;;;;;10305667;28;20405;-62
2022/03/25 10:51:56;;;;;;;16.05;7.75;;;;;;;;;;10297471;28;20541;-62
2022/03/25 10:57:00;;;;;;;13.80;7.97;;;;;;;;;;10297887;28;20151;-62
2022/03/25 11:02:05;;;;;;;11.60;7.00;;;;;;;;;;10295131;28;20258;-62
2022/03/25 11:07:09;;;;;;;13.40;8.20;;;;;;;;;;10303414;28;20038;-62
2022/03/25 11:12:11;;;;;;;15.87;8.17;;;;;;;;;;10295221;28;20417;-62
2022/03/25 11:17:12;;;;;;;14.70;8.18;;;;;;;;;;10303541;28;20062;-63
2022/03/25 11:22:15;;;;;;;12.82;8.25;;;;;;;;;;10272003;28;20111;-62
2022/03/25 11:27:29;;;;;;;12.48;8.00;;;;;;;;;;10252407;28;20118;-62
2022/03/25 11:32:29;;;;;;;12.35;7.78;;;;;;;;;;10308917;28;20039;-63
2022/03/25 11:37:32;;;;;;;11.20;7.65;;;;;;;;;;10290471;28;20027;-63
2022/03/25 11:42:45;;;;;;;13.18;8.52;;;;;;;;;;10292130;28;20533;-62
2022/03/25 11:48:09;;;;;;;13.25;8.05;;;;;;;;;;10289401;28;20088;-62
2022/03/25 11:53:13;;;;;;;12.43;7.45;;;;;;;;;;10259094;28;20077;-63
2022/03/25 11:58:14;;;;;;;11.45;7.55;;;;;;;;;;10288587;28;20051;-62
2022/03/25 12:03:15;;;;;;;12.25;8.18;;;;;;;;;;10294114;28;20043;-62
2022/03/25 12:08:35;;;;;;;12.82;8.05;;;;;;;;;;10286964;28;20178;-62
2022/03/25 12:13:51;;;;;;;11.30;7.30;;;;;;;;;;10291364;28;20041;-62
2022/03/25 12:18:51;;;;;;;13.60;7.97;;;;;;;;;;10287170;28;20401;-63
2022/03/25 12:24:01;;;;;;;11.48;7.80;;;;;;;;;;10284338;28;20026;-63
2022/03/25 12:29:11;;;;;;;13.35;7.25;;;;;;;;;;10291076;28;20462;-62
2022/03/25 12:34:12;;;;;;;11.13;7.82;;;;;;;;;;10284593;28;20039;-62
2022/03/25 12:39:14;;;;;;;15.43;8.15;;;;;;;;;;10287948;28;20043;-63
2022/03/25 12:44:24;;;;;;;11.77;7.90;;;;;;;;;;10287621;28;20035;-62
2022/03/25 12:49:25;;;;;;;13.80;8.00;;;;;;;;;;10283807;28;20145;-63
2022/03/25 12:54:33;;;;;;;11.52;7.32;;;;;;;;;;10292264;28;20069;-62
2022/03/25 12:59:35;;;;;;;10.65;7.13;;;;;;;;;;10292447;28;20421;-63
2022/03/25 13:04:37;;;;;;;12.77;8.13;;;;;;;;;;10298135;28;20034;-62
2022/03/25 13:09:59;;;;;;;18.77;9.30;;;;;;;;;;10293554;28;20113;-63
2022/03/25 13:15:00;;;;;;;11.35;7.78;;;;;;;;;;10286993;28;20394;-62
2022/03/25 13:20:00;;;;;;;15.18;8.13;;;;;;;;;;10295637;28;20023;-62
2022/03/25 13:25:01;;;;;;;12.23;8.13;;;;;;;;;;10297740;28;20050;-63
2022/03/25 13:30:04;;;;;;;11.60;7.97;;;;;;;;;;10297025;28;20452;-63
2022/03/25 13:35:14;;;;;;;12.80;7.28;;;;;;;;;;10284509;28;20397;-63
2022/03/25 13:40:43;;;;;;;14.45;8.68;;;;;;;;;;10284196;28;20254;-63
2022/03/25 13:46:08;;;;;;;14.48;8.43;;;;;;;;;;10287237;28;20067;-63
2022/03/25 13:51:38;;;;;;;12.20;8.38;;;;;;;;;;10289212;28;20482;-62
2022/03/25 13:56:49;;;;;;;16.70;7.70;;;;;;;;;;10292875;28;20198;-63
2022/03/25 14:01:49;;;;;;;12.55;7.65;;;;;;;;;;10289120;28;20031;-62
2022/03/25 14:06:56;;;;;;;14.07;8.13;;;;;;;;;;10291784;28;20038;-63
2022/03/25 14:12:02;;;;;;;15.25;7.82;;;;;;;;;;10286354;28;20030;-63
2022/03/25 14:17:12;;;;;;;11.98;7.88;;;;;;;;;;10287962;28;20042;-62
2022/03/25 14:22:12;;;;;;;9.32;7.45;;;;;;;;;;10284805;28;20031;-62
2022/03/25 14:27:13;;;;;;;15.55;7.40;;;;;;;;;;10291408;28;20414;-62
2022/03/25 14:32:14;;;;;;;19.55;8.27;;;;;;;;;;10292528;28;20042;-62
2022/03/25 14:37:14;;;;;;;13.25;7.90;;;;;;;;;;10289581;28;20046;-62
2022/03/25 14:42:15;;;;;;;10.38;7.55;;;;;;;;;;10288213;28;20031;-62
2022/03/25 14:47:17;;;;;;;12.43;7.82;;;;;;;;;;10287317;28;20039;-63
2022/03/25 14:52:17;;;;;;;12.85;7.95;;;;;;;;;;10291870;28;20082;-63
2022/03/25 14:57:20;;;;;;;10.35;7.47;;;;;;;;;;10291060;28;20042;-63
2022/03/25 15:02:21;;;;;;;16.55;7.15;;;;;;;;;;10286231;28;20266;-63
2022/03/25 15:07:21;;;;;;;11.75;7.28;;;;;;;;;;10294263;28;20271;-63
2022/03/25 15:12:22;;;;;;;11.95;7.18;;;;;;;;;;10290482;28;20034;-62
2022/03/25 15:17:23;;;;;;;12.98;8.43;;;;;;;;;;10276208;28;20023;-63
2022/03/25 15:22:24;;;;;;;14.18;7.88;;;;;;;;;;10290283;28;20035;-63
2022/03/25 15:27:24;;;;;;;13.70;8.10;;;;;;;;;;10288852;28;20275;-62
2022/03/25 15:37:45;;;;;;;11.23;7.05;;;;;;;;;;10291038;28;20429;-62
2022/03/25 15:42:46;;;;;;;10.30;7.10;;;;;;;;;;10282839;28;20041;-63
2022/03/25 15:47:46;;;;;;;14.10;7.72;;;;;;;;;;10287045;28;20409;-63
2022/03/25 15:52:48;;;;;;;14.02;8.07;;;;;;;;;;10287500;28;20029;-62
2022/03/25 15:57:52;;;;;;;12.05;7.00;;;;;;;;;;10288814;28;20039;-63
2022/03/25 16:02:53;;;;;;;13.23;7.57;;;;;;;;;;10293575;28;20378;-63
2022/03/25 16:07:53;;;;;;;13.65;7.45;;;;;;;;;;10283553;28;20027;-62
2022/03/25 16:12:54;;;;;;;12.40;7.43;;;;;;;;;;10283654;28;20718;-62
2022/03/25 16:17:55;;;;;;;10.60;6.72;;;;;;;;;;10283400;28;20038;-63
2022/03/25 16:22:57;;;;;;;11.93;6.85;;;;;;;;;;10286975;28;20035;-62
2022/03/25 16:27:58;;;;;;;10.30;7.18;;;;;;;;;;10283231;28;20035;-62
2022/03/25 16:32:59;;;;;;;13.65;7.60;;;;;;;;;;10288578;28;20026;-62
2022/03/25 16:38:00;;;;;;;10.60;6.75;;;;;;;;;;10286450;28;20027;-62
2022/03/25 16:43:00;;;;;;;9.77;6.43;;;;;;;;;;10286424;28;20126;-62
2022/03/25 16:48:02;;;;;;;14.18;6.80;;;;;;;;;;10279282;28;20039;-60
2022/03/25 16:53:02;;;;;;;8.70;6.00;;;;;;;;;;10269747;28;20406;-61
2022/03/25 16:58:04;;;;;;;14.00;6.63;;;;;;;;;;10279838;28;20089;-59
2022/03/25 17:03:07;;;;;;;11.88;6.32;;;;;;;;;;10274945;28;20125;-60
2022/03/25 17:08:08;;;;;;;12.65;6.57;;;;;;;;;;10260110;28;20557;-64
2022/03/25 17:13:09;;;;;;;10.15;7.03;;;;;;;;;;10282570;28;20031;-58
2022/03/25 17:18:10;;;;;;;13.25;6.60;;;;;;;;;;10284577;28;20046;-54
2022/03/25 17:23:10;;;;;;;9.63;6.22;;;;;;;;;;10282574;28;20429;-58
2022/03/25 17:28:11;;;;;;;8.48;6.18;;;;;;;;;;10251994;28;20100;-60
2022/03/25 17:33:12;;;;;;;14.30;5.93;;;;;;;;;;10252117;28;20041;-58
2022/03/25 17:38:13;;;;;;;11.48;5.95;;;;;;;;;;10292144;28;20258;-65
2022/03/25 17:43:14;;;;;;;11.77;6.07;;;;;;;;;;10256451;28;20045;-57
2022/03/25 17:48:19;;;;;;;12.45;5.78;;;;;;;;;;10280986;28;20489;-57
2022/03/25 17:53:22;;;;;;;11.57;6.00;;;;;;;;;;10286781;28;20470;-61
2022/03/25 17:58:24;;;;;;;8.43;6.03;;;;;;;;;;10279836;28;20051;-57
2022/03/25 18:03:25;;;;;;;9.55;5.78;;;;;;;;;;10275517;28;20122;-57
2022/03/25 18:08:27;;;;;;;9.48;5.68;;;;;;;;;;10280812;28;20027;-58
2022/03/25 18:13:28;;;;;;;10.82;5.90;;;;;;;;;;10292161;28;20038;-58
2022/03/25 18:18:29;;;;;;;11.98;6.13;;;;;;;;;;10290398;28;20050;-58
2022/03/25 18:23:31;;;;;;;9.23;5.75;;;;;;;;;;10289352;28;20031;-59
2022/03/25 18:28:32;;;;;;;9.98;5.65;;;;;;;;;;10293090;28;20034;-58
2022/03/25 18:33:33;;;;;;;17.65;6.55;;;;;;;;;;10290964;28;20035;-58
2022/03/25 18:38:33;;;;;;;11.98;6.13;;;;;;;;;;10291141;28;20035;-61
2022/03/25 18:43:34;;;;;;;13.38;6.70;;;;;;;;;;10290706;28;20050;-57
2022/03/25 18:48:35;;;;;;;10.07;6.22;;;;;;;;;;10288915;28;20026;-58
2022/03/25 18:53:35;;;;;;;14.60;5.80;;;;;;;;;;10291361;28;20086;-58
2022/03/25 18:58:36;;;;;;;14.73;6.38;;;;;;;;;;10362811;23;20091;-45
2022/03/25 19:03:37;;;;;;;11.05;5.63;;;;;;;;;;10367839;28;20030;-48
2022/03/25 19:08:39;;;;;;;12.65;5.50;;;;;;;;;;10350641;28;20052;-46
2022/03/25 19:13:40;;;;;;;12.25;6.20;;;;;;;;;;10365986;28;20022;-46
2022/03/25 19:18:41;;;;;;;9.63;6.35;;;;;;;;;;10365814;28;20425;-45
2022/03/25 19:23:42;;;;;;;14.68;6.30;;;;;;;;;;10366889;28;20064;-46
2022/03/25 19:28:43;;;;;;;7.80;5.85;;;;;;;;;;10367316;28;20034;-46
2022/03/25 19:33:44;;;;;;;15.27;6.10;;;;;;;;;;10364082;28;20046;-48
2022/03/25 19:38:45;;;;;;;11.82;5.80;;;;;;;;;;10355945;28;20026;-46
2022/03/25 19:43:46;;;;;;;9.10;5.15;;;;;;;;;;10362832;28;20034;-45
2022/03/25 19:48:47;;;;;;;7.95;5.45;;;;;;;;;;10365335;28;20048;-46
2022/03/25 19:53:48;;;;;;;9.68;5.93;;;;;;;;;;10367251;28;20038;-46
2022/03/25 19:58:48;;;;;;;10.65;6.05;;;;;;;;;;10366917;28;20053;-45
2022/03/25 20:03:49;;;;;;;11.60;5.57;;;;;;;;;;10366495;28;20042;-47
2022/03/25 20:08:49;;;;;;;13.05;6.38;;;;;;;;;;10359319;28;20026;-47
2022/03/25 20:13:50;;;;;;;11.48;6.47;;;;;;;;;;10364166;28;20041;-47
2022/03/25 20:18:51;;;;;;;11.02;5.78;;;;;;;;;;10358716;28;20477;-46
2022/03/25 20:23:52;;;;;;;10.82;5.60;;;;;;;;;;10361560;28;20034;-46
2022/03/25 20:28:52;;;;;;;13.88;6.35;;;;;;;;;;10362176;28;20374;-46
2022/03/25 20:33:53;;;;;;;15.23;6.38;;;;;;;;;;10362004;28;20057;-46
2022/03/25 20:38:54;;;;;;;24.15;6.82;;;;;;;;;;10360608;28;20030;-46
2022/03/25 20:43:54;;;;;;;25.88;7.47;;;;;;;;;;10362790;28;20555;-47
2022/03/25 20:48:55;;;;;;;20.52;7.25;;;;;;;;;;10366267;28;20034;-46
2022/03/25 20:53:57;;;;;;;22.63;6.80;;;;;;;;;;10364652;28;20056;-46
2022/03/25 20:59:02;;;;;;;22.70;7.53;;;;;;;;;;10362158;28;20133;-46
2022/03/25 21:04:03;;;;;;;14.93;6.78;;;;;;;;;;10362881;28;20366;-49
2022/03/25 21:09:04;;;;;;;26.80;7.38;;;;;;;;;;10362508;28;20034;-46
2022/03/25 21:14:05;;;;;;;18.30;6.88;;;;;;;;;;10364887;28;20030;-46
2022/03/25 21:19:06;;;;;;;17.17;7.10;;;;;;;;;;10357284;28;20049;-50
2022/03/25 21:24:06;;;;;;;14.95;7.25;;;;;;;;;;10373151;28;20140;-46
2022/03/25 21:29:07;;;;;;;10.43;6.22;;;;;;;;;;10371619;28;20025;-46
2022/03/25 21:34:08;;;;;;;15.65;6.57;;;;;;;;;;10369976;28;20041;-46
2022/03/25 21:39:09;;;;;;;27.60;6.50;;;;;;;;;;10372365;28;20445;-46
2022/03/25 21:44:09;;;;;;;14.50;6.80;;;;;;;;;;10371868;28;20026;-47
2022/03/25 21:49:10;;;;;;;8.95;6.13;;;;;;;;;;10370621;28;20061;-46
2022/03/25 21:54:11;;;;;;;13.20;6.43;;;;;;;;;;10371999;28;20041;-46
2022/03/25 21:59:11;;;;;;;13.43;6.80;;;;;;;;;;10371404;28;20046;-47
2022/03/25 22:04:12;;;;;;;14.35;6.85;;;;;;;;;;10371284;28;20030;-46
2022/03/25 22:09:12;;;;;;;13.82;6.38;;;;;;;;;;10371678;28;20393;-46
2022/03/25 22:14:14;;;;;;;10.52;6.13;;;;;;;;;;10371025;28;20373;-46
2022/03/25 22:19:15;;;;;;;13.25;6.75;;;;;;;;;;10364850;28;20084;-46
2022/03/25 22:24:16;;;;;;;17.05;6.40;;;;;;;;;;10370554;28;20452;-46
2022/03/25 22:29:17;;;;;;;23.90;7.65;;;;;;;;;;10356015;28;20042;-46
2022/03/25 22:34:18;;;;;;;19.02;7.38;;;;;;;;;;10369178;28;20029;-47
2022/03/25 22:39:19;;;;;;;20.55;8.95;;;;;;;;;;10370564;28;20083;-47
2022/03/25 22:44:20;;;;;;;29.98;7.60;;;;;;;;;;10369982;28;20558;-46
2022/03/25 22:49:21;;;;;;;24.50;7.80;;;;;;;;;;10370812;28;20147;-46
2022/03/25 22:54:21;;;;;;;27.27;8.13;;;;;;;;;;10366557;28;20166;-46
2022/03/25 22:59:22;;;;;;;18.88;7.93;;;;;;;;;;10367848;28;20046;-46
2022/03/25 23:04:22;;;;;;;22.85;7.30;;;;;;;;;;10369046;28;20496;-46
2022/03/25 23:09:23;;;;;;;23.30;7.22;;;;;;;;;;10369479;28;20202;-46
2022/03/25 23:14:23;;;;;;;19.80;7.55;;;;;;;;;;10368460;28;20038;-46
2022/03/25 23:19:24;;;;;;;21.95;7.38;;;;;;;;;;10360461;28;20182;-47
2022/03/25 23:24:25;;;;;;;21.55;7.35;;;;;;;;;;10368086;28;20108;-46
2022/03/25 23:29:26;;;;;;;13.80;6.93;;;;;;;;;;10361645;28;20539;-46
2022/03/25 23:34:26;;;;;;;19.80;7.13;;;;;;;;;;10368237;28;20029;-46
2022/03/25 23:39:27;;;;;;;17.55;7.53;;;;;;;;;;10358237;28;20041;-46
2022/03/25 23:44:28;;;;;;;10.93;6.85;;;;;;;;;;10367445;28;20139;-46
2022/03/25 23:49:28;;;;;;;15.27;6.93;;;;;;;;;;10368455;28;20529;-46
2022/03/25 23:54:29;;;;;;;20.92;6.97;;;;;;;;;;10367230;28;20494;-46
2022/03/25 23:59:30;;;;;;;15.15;7.18;;;;;;;;;;10367377;28;20041;-46
